Time;durP1;ratioP1;P1;durP2;ratioP2;P2;SDS_P1;SDS_P2;PMS_P1;PMS_P2;Temp;Humidity;BMP_temperature;BMP_pressure;BME280_temperature;BME280_humidity;BME280_pressure;Samples;Min_cycle;Max_cycle;Signal;HPM_P1;HPM_P2
2022/06/07 00:00:49;;;;;;;6.87;4.47;;;22.50;99.60;;;;;;5056638;28;20507;-69
2022/06/07 00:03:18;;;;;;;4.43;4.03;;;22.40;99.90;;;;;;5056742;28;20489;-70
2022/06/07 00:05:48;;;;;;;4.70;4.20;;;22.40;99.90;;;;;;5056842;28;20227;-69
2022/06/07 00:08:18;;;;;;;5.13;4.57;;;22.40;99.90;;;;;;5056777;28;20886;-69
2022/06/07 00:10:45;;;;;;;5.10;4.60;;;22.30;99.90;;;;;;5074804;28;20433;-69
2022/06/07 00:13:11;;;;;;;7.03;4.60;;;22.30;99.90;;;;;;5056705;28;20467;-69
2022/06/07 00:15:40;;;;;;;4.23;3.83;;;22.20;99.90;;;;;;5056500;28;21049;-68
2022/06/07 00:18:07;;;;;;;5.47;4.13;;;22.20;99.90;;;;;;5074704;28;20891;-69
2022/06/07 00:20:34;;;;;;;5.00;4.50;;;22.10;99.90;;;;;;5056478;28;20492;-69
2022/06/07 00:23:01;;;;;;;5.20;4.70;;;22.10;99.90;;;;;;5056291;28;20455;-69
2022/06/07 00:25:27;;;;;;;4.97;4.47;;;22.00;99.90;;;;;;5056034;28;20466;-68
2022/06/07 00:27:54;;;;;;;4.97;4.47;;;22.00;99.90;;;;;;5056395;28;20948;-69
2022/06/07 00:30:20;;;;;;;5.23;4.53;;;21.90;99.90;;;;;;5056310;28;20445;-69
2022/06/07 00:32:47;;;;;;;4.70;4.30;;;21.90;99.90;;;;;;5056237;28;20432;-69
2022/06/07 00:35:13;;;;;;;5.77;4.63;;;21.90;99.90;;;;;;5074341;28;20717;-69
2022/06/07 00:37:42;;;;;;;5.63;4.00;;;21.80;99.90;;;;;;5055966;28;20409;-70
2022/06/07 00:40:08;;;;;;;5.47;4.87;;;21.80;99.90;;;;;;5055631;28;20990;-69
2022/06/07 00:42:36;;;;;;;4.93;4.43;;;21.80;99.90;;;;;;5090023;28;20886;-69
2022/06/07 00:45:03;;;;;;;5.50;4.97;;;21.80;99.90;;;;;;5075836;28;20471;-69
2022/06/07 00:47:30;;;;;;;5.60;4.60;;;21.80;99.90;;;;;;5075825;28;20956;-69
2022/06/07 00:50:10;;;;;;;7.10;4.60;;;21.70;99.90;;;;;;5075709;28;20461;-69
2022/06/07 00:52:38;;;;;;;5.53;4.77;;;21.70;99.90;;;;;;5076086;28;20996;-70
2022/06/07 00:55:06;;;;;;;5.23;4.73;;;21.70;99.90;;;;;;5075838;28;20444;-69
2022/06/07 00:57:32;;;;;;;5.30;4.40;;;21.70;99.90;;;;;;5075679;28;20417;-68
2022/06/07 00:59:59;;;;;;;4.90;4.40;;;21.60;99.90;;;;;;5074968;28;20519;-68
2022/06/07 01:02:25;;;;;;;5.13;4.63;;;21.60;99.90;;;;;;5093829;28;20428;-70
2022/06/07 01:04:51;;;;;;;4.33;3.97;;;21.60;99.90;;;;;;5075895;28;20456;-68
2022/06/07 01:12:49;;;;;;;5.60;4.93;;;21.60;99.90;;;;;;5093959;28;20496;-68
2022/06/07 01:15:15;;;;;;;5.27;4.43;;;21.50;99.90;;;;;;5075712;28;20476;-68
2022/06/07 01:17:42;;;;;;;4.57;4.17;;;21.50;99.90;;;;;;5076096;28;20459;-69
2022/06/07 01:20:12;;;;;;;6.50;5.00;;;21.50;99.90;;;;;;5075313;28;20497;-68
2022/06/07 01:22:39;;;;;;;5.77;5.17;;;21.40;99.90;;;;;;5075877;28;20409;-68
2022/06/07 01:25:05;;;;;;;6.53;5.43;;;21.40;99.90;;;;;;5075565;28;20742;-68
2022/06/07 01:27:31;;;;;;;6.20;4.80;;;21.40;99.90;;;;;;5093688;28;20405;-69
2022/06/07 01:29:58;;;;;;;5.80;4.90;;;21.30;99.90;;;;;;5075194;28;20441;-70
2022/06/07 01:32:25;;;;;;;6.00;5.27;;;21.30;99.90;;;;;;5075453;28;20950;-68
2022/06/07 01:34:50;;;;;;;5.63;4.47;;;21.30;99.90;;;;;;5075655;28;20441;-68
2022/06/07 01:37:19;;;;;;;5.83;4.83;;;21.20;99.90;;;;;;5075992;28;20172;-68
2022/06/07 01:42:52;;;;;;;6.33;5.00;;;21.10;99.90;;;;;;4994600;28;20417;-67
2022/06/07 01:45:20;;;;;;;6.13;5.40;;;21.10;99.90;;;;;;4991855;28;20455;-69
2022/06/07 01:47:46;;;;;;;6.77;5.60;;;21.00;99.90;;;;;;5024446;28;20417;-68
2022/06/07 01:50:18;;;;;;;5.93;5.07;;;21.00;99.90;;;;;;5055101;28;20508;-68
2022/06/07 01:52:45;;;;;;;7.70;5.70;;;21.00;99.90;;;;;;5073414;28;20496;-70
2022/06/07 01:55:12;;;;;;;5.57;4.90;;;21.00;99.90;;;;;;5055558;28;20530;-69
2022/06/07 01:57:37;;;;;;;7.00;5.70;;;21.00;99.90;;;;;;5055316;28;20409;-68
2022/06/07 02:00:05;;;;;;;7.90;5.60;;;21.00;99.90;;;;;;5073234;28;20476;-68
2022/06/07 02:02:33;;;;;;;6.20;5.60;;;20.90;99.90;;;;;;5055146;28;20645;-68
2022/06/07 02:04:59;;;;;;;5.90;5.10;;;20.90;99.90;;;;;;5055243;28;20462;-70
2022/06/07 02:07:26;;;;;;;5.67;5.00;;;20.90;99.90;;;;;;5055093;28;20906;-68
2022/06/07 02:09:52;;;;;;;5.03;4.47;;;20.90;99.90;;;;;;5055238;28;20511;-68
2022/06/07 02:12:18;;;;;;;6.40;5.80;;;20.90;99.90;;;;;;5057187;28;20496;-68
2022/06/07 02:14:44;;;;;;;5.80;4.83;;;20.80;99.90;;;;;;5058619;28;20480;-68
2022/06/07 02:17:09;;;;;;;5.70;4.90;;;20.80;99.90;;;;;;5058622;28;20177;-69
2022/06/07 02:19:36;;;;;;;7.87;5.70;;;20.80;99.90;;;;;;5058531;28;20473;-68
2022/06/07 02:22:03;;;;;;;6.20;5.37;;;20.70;99.90;;;;;;5058936;28;20440;-68
2022/06/07 02:24:29;;;;;;;7.40;5.10;;;20.70;99.90;;;;;;5058101;28;20438;-68
2022/06/07 02:27:12;;;;;;;6.27;5.00;;;20.60;99.90;;;;;;5058566;28;20921;-68
2022/06/07 02:29:42;;;;;;;6.80;5.40;;;20.60;99.90;;;;;;5058423;28;20454;-68
2022/06/07 02:32:20;;;;;;;6.73;5.77;;;20.60;99.90;;;;;;5058513;28;20417;-70
2022/06/07 02:34:48;;;;;;;7.67;5.37;;;20.50;99.90;;;;;;5058663;28;20455;-68
2022/06/07 02:37:15;;;;;;;8.20;5.57;;;20.50;99.90;;;;;;5076243;28;20803;-68
2022/06/07 02:39:41;;;;;;;6.13;5.17;;;20.40;99.90;;;;;;5058263;28;20473;-68
2022/06/07 02:42:10;;;;;;;5.57;5.07;;;20.40;99.90;;;;;;5070062;28;20495;-68
2022/06/07 02:44:36;;;;;;;7.40;5.87;;;20.40;99.90;;;;;;5078223;28;20989;-68
2022/06/07 02:47:03;;;;;;;7.20;5.67;;;20.40;99.90;;;;;;5078197;28;20511;-68
2022/06/07 02:49:29;;;;;;;7.90;5.60;;;20.40;99.90;;;;;;5078329;28;20199;-69
2022/06/07 02:51:54;;;;;;;8.37;5.73;;;20.30;99.90;;;;;;5078089;28;20511;-68
2022/06/07 02:54:22;;;;;;;7.07;6.13;;;20.30;99.90;;;;;;5078000;28;20459;-69
2022/06/07 02:56:48;;;;;;;6.30;5.70;;;20.30;99.90;;;;;;5078101;28;20179;-68
2022/06/07 02:59:14;;;;;;;8.17;5.63;;;20.30;99.90;;;;;;5077826;28;20501;-68
2022/06/07 03:01:42;;;;;;;9.47;6.13;;;20.30;99.90;;;;;;5096147;28;20415;-68
2022/06/07 03:04:08;;;;;;;8.47;5.87;;;20.30;99.90;;;;;;5077840;28;20323;-68
2022/06/07 03:06:37;;;;;;;7.07;6.07;;;20.20;99.90;;;;;;5077902;28;20824;-70
2022/06/07 03:09:03;;;;;;;7.40;5.87;;;20.20;99.90;;;;;;5095832;28;20195;-68
2022/06/07 03:11:32;;;;;;;6.93;5.50;;;20.20;99.90;;;;;;5077603;28;20419;-67
2022/06/07 03:14:00;;;;;;;7.80;6.53;;;20.10;99.90;;;;;;5077564;28;20435;-70
2022/06/07 03:16:27;;;;;;;7.93;5.87;;;20.10;99.90;;;;;;5077558;28;20420;-69
2022/06/07 03:18:58;;;;;;;8.23;6.10;;;20.10;99.90;;;;;;5077549;28;20428;-69
2022/06/07 03:21:24;;;;;;;7.47;6.30;;;20.00;99.90;;;;;;5077911;28;20474;-68
2022/06/07 03:23:50;;;;;;;7.43;5.93;;;20.00;99.90;;;;;;5077371;28;20427;-69
2022/06/07 03:26:17;;;;;;;7.10;5.80;;;19.90;99.90;;;;;;5077428;28;20214;-69
2022/06/07 03:28:43;;;;;;;8.03;6.40;;;19.90;99.90;;;;;;5077295;28;20932;-68
2022/06/07 03:31:17;;;;;;;6.70;5.47;;;19.90;99.90;;;;;;5077512;28;20430;-70
2022/06/07 03:33:44;;;;;;;10.27;6.40;;;19.80;99.90;;;;;;5077404;28;20413;-69
2022/06/07 03:36:23;;;;;;;7.87;6.13;;;19.80;99.90;;;;;;5077103;28;20434;-69
2022/06/07 03:38:50;;;;;;;9.30;6.63;;;19.80;99.90;;;;;;5076818;28;20418;-68
2022/06/07 03:41:23;;;;;;;8.67;6.20;;;19.80;99.90;;;;;;5072342;28;20482;-69
2022/06/07 03:43:51;;;;;;;8.63;6.50;;;19.80;99.90;;;;;;5056820;28;20757;-69
2022/06/07 03:46:23;;;;;;;7.83;6.13;;;19.80;99.90;;;;;;5056984;28;20423;-70
2022/06/07 03:48:49;;;;;;;7.87;6.23;;;19.80;99.90;;;;;;5057204;28;20403;-69
2022/06/07 03:51:17;;;;;;;7.27;5.87;;;19.80;99.90;;;;;;5056680;28;20482;-70
2022/06/07 03:53:44;;;;;;;10.50;7.17;;;19.80;99.90;;;;;;5056729;28;20415;-68
2022/06/07 03:56:11;;;;;;;9.37;6.40;;;19.80;99.90;;;;;;5056907;28;20424;-69
2022/06/07 03:58:38;;;;;;;8.10;6.40;;;19.90;99.90;;;;;;5056720;28;20820;-69
2022/06/07 04:01:06;;;;;;;7.37;6.60;;;19.90;99.90;;;;;;5056615;28;20544;-68
2022/06/07 04:03:33;;;;;;;8.80;7.23;;;19.90;99.90;;;;;;5057267;28;20749;-69
2022/06/07 04:06:01;;;;;;;8.00;6.47;;;19.90;99.90;;;;;;5056755;28;20460;-69
2022/06/07 04:08:27;;;;;;;7.67;6.53;;;19.90;99.90;;;;;;5056755;28;20414;-69
2022/06/07 04:10:59;;;;;;;8.37;7.20;;;19.90;99.90;;;;;;5056700;28;20467;-68
2022/06/07 04:13:29;;;;;;;9.80;7.07;;;19.90;99.90;;;;;;5057079;28;20175;-69
2022/06/07 04:15:56;;;;;;;9.50;7.30;;;19.90;99.90;;;;;;5056788;28;20479;-69
2022/06/07 04:18:23;;;;;;;8.37;6.20;;;19.90;99.90;;;;;;5056546;28;20847;-69
2022/06/07 04:20:49;;;;;;;12.13;7.43;;;19.90;99.90;;;;;;5056394;28;20490;-69
2022/06/07 04:23:18;;;;;;;11.53;7.77;;;19.90;99.90;;;;;;5055470;28;20832;-69
2022/06/07 04:25:44;;;;;;;9.30;6.67;;;19.90;99.90;;;;;;5055274;28;20200;-69
2022/06/07 04:28:11;;;;;;;12.03;7.37;;;20.00;99.90;;;;;;5056162;28;20453;-69
2022/06/07 04:30:38;;;;;;;11.37;7.57;;;20.00;99.90;;;;;;5056374;28;20466;-68
2022/06/07 04:33:05;;;;;;;7.53;6.40;;;20.10;99.90;;;;;;5056187;28;20436;-69
2022/06/07 04:35:30;;;;;;;11.97;7.53;;;20.10;99.90;;;;;;5055751;28;20459;-69
2022/06/07 04:37:57;;;;;;;6.57;5.53;;;20.20;99.90;;;;;;5056033;28;20425;-69
2022/06/07 04:40:24;;;;;;;7.50;5.10;;;20.20;99.90;;;;;;5055996;28;20219;-70
2022/06/07 04:42:50;;;;;;;6.63;5.93;;;20.30;99.90;;;;;;5073588;28;20426;-70
2022/06/07 04:45:18;;;;;;;7.00;5.20;;;20.40;99.90;;;;;;5070542;28;20882;-69
2022/06/07 04:47:49;;;;;;;7.97;5.90;;;20.50;99.90;;;;;;5055724;28;20180;-68
2022/06/07 04:50:17;;;;;;;7.57;6.07;;;20.60;99.90;;;;;;5053925;28;21008;-69
2022/06/07 04:52:45;;;;;;;1039.90;452.03;;;20.70;99.90;;;;;;5054033;28;20478;-70
2022/06/07 04:55:12;;;;;;;42.60;37.47;;;20.80;99.90;;;;;;5054128;28;20805;-69
2022/06/07 04:57:40;;;;;;;16.70;12.00;;;20.90;99.90;;;;;;5053791;28;20461;-69
2022/06/07 05:00:08;;;;;;;12.93;8.03;;;20.90;99.90;;;;;;5071649;28;20480;-69
2022/06/07 05:02:35;;;;;;;13.23;7.87;;;21.00;99.90;;;;;;5061502;28;20428;-68
2022/06/07 05:05:05;;;;;;;9.00;6.70;;;21.10;99.90;;;;;;5073531;28;20509;-69
2022/06/07 05:07:31;;;;;;;8.97;6.10;;;21.10;99.90;;;;;;5073844;28;20461;-68
2022/06/07 05:09:56;;;;;;;8.90;6.87;;;21.20;99.90;;;;;;5058994;28;20465;-70
2022/06/07 05:12:23;;;;;;;7.40;6.07;;;21.20;99.90;;;;;;5071284;28;20415;-69
2022/06/07 05:14:50;;;;;;;7.23;6.00;;;21.30;99.90;;;;;;5053408;28;20205;-68
2022/06/07 05:17:16;;;;;;;7.30;5.50;;;21.40;99.90;;;;;;5069845;28;20410;-68
2022/06/07 05:19:41;;;;;;;7.43;6.10;;;21.40;99.90;;;;;;5073520;28;20484;-67
2022/06/07 05:22:08;;;;;;;6.80;5.53;;;21.40;99.90;;;;;;5073234;28;20409;-68
2022/06/07 05:24:34;;;;;;;9.80;6.83;;;21.50;99.90;;;;;;5073449;28;20261;-69
2022/06/07 05:27:05;;;;;;;6.90;6.20;;;21.60;99.90;;;;;;5075805;28;20467;-68
2022/06/07 05:29:50;;;;;;;7.37;5.67;;;21.60;99.90;;;;;;5075097;28;20488;-69
2022/06/07 05:32:20;;;;;;;120.77;56.27;;;21.70;99.90;;;;;;5073111;28;20450;-68
2022/06/07 05:34:47;;;;;;;565.37;289.17;;;21.80;99.90;;;;;;5069007;28;20515;-69
2022/06/07 05:37:20;;;;;;;46.80;32.43;;;21.90;99.90;;;;;;5075555;28;20451;-69
2022/06/07 05:39:46;;;;;;;79.43;41.07;;;21.90;99.90;;;;;;5065721;28;20481;-68
2022/06/07 05:42:14;;;;;;;18.43;12.33;;;22.00;99.90;;;;;;5093399;28;20405;-69
2022/06/07 05:44:40;;;;;;;5.93;5.23;;;22.10;99.90;;;;;;5074861;28;20452;-68
2022/06/07 05:47:07;;;;;;;7.57;6.10;;;22.10;99.90;;;;;;5078431;28;20404;-70
2022/06/07 05:49:33;;;;;;;6.10;5.03;;;22.20;99.90;;;;;;5077258;28;21031;-69
2022/06/07 05:52:02;;;;;;;5.63;4.03;;;22.20;99.90;;;;;;5086985;28;20421;-68
2022/06/07 05:54:30;;;;;;;7.33;4.60;;;22.30;99.90;;;;;;5055469;28;21197;-69
2022/06/07 05:56:58;;;;;;;7.17;5.03;;;22.40;99.90;;;;;;5091659;28;20431;-68
2022/06/07 05:59:24;;;;;;;4.60;3.90;;;22.50;99.90;;;;;;5092161;28;20456;-68
2022/06/07 06:01:50;;;;;;;6.00;4.30;;;22.50;99.90;;;;;;5086110;28;20826;-69
2022/06/07 06:04:16;;;;;;;4.13;3.73;;;22.60;99.90;;;;;;5095541;28;20428;-70
2022/06/07 06:06:46;;;;;;;5.17;4.50;;;22.70;99.90;;;;;;5074508;28;20427;-69
2022/06/07 06:12:25;;;;;;;4.83;3.60;;;22.80;99.90;;;;;;5074061;28;20392;-68
2022/06/07 06:14:52;;;;;;;4.50;3.97;;;22.90;99.90;;;;;;5063864;28;20466;-67
2022/06/07 06:17:24;;;;;;;4.07;3.67;;;23.00;99.90;;;;;;5060138;28;20784;-69
2022/06/07 06:20:01;;;;;;;3.87;3.50;;;23.10;99.90;;;;;;5054698;28;20752;-67
2022/06/07 06:23:09;;;;;;;5.83;4.10;;;23.20;99.90;;;;;;5058099;28;20441;-68
2022/06/07 06:25:56;;;;;;;4.40;4.00;;;23.20;99.90;;;;;;5072641;28;20716;-68
2022/06/07 06:28:37;;;;;;;4.63;3.97;;;23.30;99.90;;;;;;5058170;28;20434;-68
2022/06/07 06:31:09;;;;;;;4.80;4.13;;;23.40;99.90;;;;;;5075065;28;20433;-68
2022/06/07 06:33:38;;;;;;;4.10;3.60;;;23.50;99.90;;;;;;5075873;28;20799;-70
2022/06/07 06:36:11;;;;;;;14.57;9.53;;;23.60;99.90;;;;;;5065354;28;20773;-70
2022/06/07 06:38:50;;;;;;;28.30;17.47;;;23.60;99.90;;;;;;5057204;28;20418;-69
2022/06/07 06:41:32;;;;;;;21.83;15.77;;;23.70;99.90;;;;;;5069520;28;20480;-70
2022/06/07 06:44:10;;;;;;;15.57;10.13;;;23.70;99.90;;;;;;5075010;28;20456;-70
2022/06/07 06:46:48;;;;;;;5.57;4.70;;;23.80;99.90;;;;;;5075055;28;20999;-69
2022/06/07 06:49:15;;;;;;;4.47;4.07;;;23.80;99.90;;;;;;5075212;28;20461;-69
2022/06/07 06:54:50;;;;;;;4.93;4.00;;;24.00;99.90;;;;;;5091876;28;20471;-69
2022/06/07 06:57:59;;;;;;;4.10;3.70;;;24.00;99.90;;;;;;5072324;28;20405;-70
2022/06/07 07:00:27;;;;;;;3.70;3.40;;;24.10;99.90;;;;;;5092517;28;20228;-69
2022/06/07 07:02:59;;;;;;;3.97;3.57;;;24.20;99.90;;;;;;5068308;28;20934;-71
2022/06/07 07:05:26;;;;;;;3.30;3.00;;;24.30;99.90;;;;;;5072152;28;20206;-66
2022/06/07 07:07:53;;;;;;;3.57;2.87;;;24.30;99.90;;;;;;5075496;28;20416;-67
2022/06/07 07:10:19;;;;;;;3.10;2.90;;;24.40;99.90;;;;;;5075494;28;20549;-68
2022/06/07 07:12:46;;;;;;;3.87;3.40;;;24.40;99.90;;;;;;5081480;28;20513;-69
2022/06/07 07:15:13;;;;;;;3.27;2.97;;;24.50;99.90;;;;;;5092377;28;20220;-68
2022/06/07 07:17:39;;;;;;;3.97;3.00;;;24.60;99.90;;;;;;5092924;28;20450;-69
2022/06/07 07:20:38;;;;;;;3.63;3.30;;;24.70;99.90;;;;;;5075486;28;20490;-70
2022/06/07 07:23:24;;;;;;;4.80;3.17;;;24.80;99.90;;;;;;5059139;28;20463;-68
2022/06/07 07:25:51;;;;;;;3.37;2.80;;;24.80;99.90;;;;;;5084399;28;20475;-70
2022/06/07 07:31:18;;;;;;;3.60;3.30;;;25.00;99.90;;;;;;5154098;23;20809;-69
2022/06/07 07:33:44;;;;;;;3.67;3.43;;;25.10;99.90;;;;;;5094251;28;20903;-67
2022/06/07 07:36:17;;;;;;;3.90;3.40;;;25.20;99.90;;;;;;5106282;28;20434;-69
2022/06/07 07:38:47;;;;;;;3.13;2.83;;;25.30;99.90;;;;;;5100793;28;20410;-68
2022/06/07 07:41:34;;;;;;;3.93;3.40;;;25.30;99.90;;;;;;5111637;28;20469;-69
2022/06/07 07:44:27;;;;;;;6.03;3.17;;;25.40;99.90;;;;;;5093759;28;20458;-69
2022/06/07 07:46:55;;;;;;;4.47;3.40;;;25.50;99.90;;;;;;5114271;28;20941;-70
2022/06/07 07:49:23;;;;;;;3.80;3.03;;;25.60;99.90;;;;;;5096974;28;20462;-68
2022/06/07 07:51:52;;;;;;;3.30;2.80;;;25.70;99.90;;;;;;5095706;28;20451;-68
2022/06/07 07:54:23;;;;;;;3.07;2.80;;;25.70;99.90;;;;;;5094968;28;20558;-70
2022/06/07 07:56:50;;;;;;;3.10;2.80;;;25.80;99.90;;;;;;5093660;28;20439;-68
2022/06/07 07:59:19;;;;;;;3.13;2.30;;;25.90;99.90;;;;;;5095690;28;20452;-68
2022/06/07 08:02:05;;;;;;;4.50;2.60;;;25.90;99.90;;;;;;5093756;28;20466;-70
2022/06/07 08:04:39;;;;;;;3.13;2.60;;;26.00;99.90;;;;;;5090673;28;20463;-68
2022/06/07 08:07:04;;;;;;;3.43;2.80;;;26.10;99.90;;;;;;5089908;28;20829;-68
2022/06/07 08:09:30;;;;;;;3.50;2.70;;;26.20;99.90;;;;;;5087245;28;20467;-68
2022/06/07 08:12:05;;;;;;;4.60;2.87;;;26.20;99.50;;;;;;5090534;28;20714;-70
2022/06/07 08:14:33;;;;;;;2.47;2.27;;;26.30;98.60;;;;;;5078977;28;20207;-69
2022/06/07 08:17:00;;;;;;;3.37;2.70;;;26.40;99.10;;;;;;5090363;28;20979;-70
2022/06/07 08:19:28;;;;;;;2.10;1.90;;;26.50;98.60;;;;;;5078235;28;20853;-70
2022/06/07 08:21:53;;;;;;;2.13;2.03;;;26.60;98.30;;;;;;5106737;28;20408;-69
2022/06/07 08:24:21;;;;;;;2.37;2.20;;;26.70;98.90;;;;;;5077893;28;20444;-68
2022/06/07 08:26:49;;;;;;;1.97;1.83;;;26.80;98.40;;;;;;5095597;28;20415;-68
2022/06/07 08:29:22;;;;;;;4.10;2.20;;;26.80;98.60;;;;;;5094506;28;20496;-69
2022/06/07 08:31:48;;;;;;;2.47;2.00;;;26.90;98.10;;;;;;5087745;28;20438;-67
2022/06/07 08:39:44;;;;;;;2.20;2.00;;;27.20;96.90;;;;;;5107055;28;20522;-68
2022/06/07 08:42:14;;;;;;;2.13;1.93;;;27.20;96.40;;;;;;5091397;28;20416;-68
2022/06/07 08:44:59;;;;;;;4.70;3.20;;;27.30;96.30;;;;;;5089316;28;20200;-71
2022/06/07 08:47:35;;;;;;;2.77;2.20;;;27.40;96.20;;;;;;5090391;28;20440;-70
2022/06/07 08:50:12;;;;;;;2.13;2.03;;;27.50;96.80;;;;;;5086661;28;20485;-69
2022/06/07 08:52:39;;;;;;;1.77;1.67;;;27.50;96.10;;;;;;5080456;28;20496;-71
2022/06/07 08:55:22;;;;;;;1.93;1.83;;;27.60;95.30;;;;;;5086256;28;20453;-70
2022/06/07 08:58:16;;;;;;;3.33;2.30;;;27.60;95.50;;;;;;5084004;28;20431;-69
2022/06/07 09:00:57;;;;;;;2.80;2.10;;;27.70;95.60;;;;;;5083651;28;20477;-71
2022/06/07 09:03:46;;;;;;;2.40;2.00;;;27.80;95.60;;;;;;5085802;27;20440;-69
2022/06/07 09:06:22;;;;;;;2.10;1.97;;;27.80;95.90;;;;;;5090464;28;20443;-69
2022/06/07 09:08:57;;;;;;;2.20;2.00;;;27.90;95.50;;;;;;5085777;28;20428;-69
2022/06/07 09:12:28;;;;;;;2.90;2.07;;;28.00;95.60;;;;;;5111323;28;20861;-69
2022/06/07 09:14:47;;;;;;;4.33;1.90;;;28.10;95.20;;;;;;5080592;28;20469;-71
2022/06/07 09:17:39;;;;;;;2.30;2.10;;;28.10;94.80;;;;;;5084645;28;20432;-70
2022/06/07 09:20:21;;;;;;;4.83;2.30;;;28.10;95.40;;;;;;5087593;28;20471;-70
2022/06/07 09:26:21;;;;;;;2.57;2.37;;;28.30;94.10;;;;;;5209535;22;20488;-91
2022/06/07 09:28:48;;;;;;;2.47;2.27;;;28.30;94.00;;;;;;5109296;28;20397;-92
2022/06/07 09:31:19;;;;;;;2.93;2.60;;;28.30;94.00;;;;;;5092651;28;20455;-91
2022/06/07 09:33:53;;;;;;;2.93;2.17;;;28.40;93.60;;;;;;5106114;28;20444;-92
2022/06/07 09:36:24;;;;;;;2.20;2.00;;;28.40;93.60;;;;;;5101779;28;20441;-92
2022/06/07 09:38:55;;;;;;;2.50;2.23;;;28.40;93.90;;;;;;5080181;28;20557;-91
2022/06/07 09:41:38;;;;;;;2.53;2.33;;;28.50;94.10;;;;;;5078747;28;20474;-91
2022/06/07 09:44:23;;;;;;;2.47;2.27;;;28.50;94.10;;;;;;5096006;28;20414;-90
2022/06/07 09:47:14;;;;;;;2.80;2.53;;;28.50;93.50;;;;;;5094037;28;20437;-90
2022/06/07 09:49:51;;;;;;;2.57;2.37;;;28.60;92.90;;;;;;5065706;28;20473;-92
2022/06/07 09:52:27;;;;;;;2.60;2.40;;;28.60;93.20;;;;;;5081079;28;20907;-93
2022/06/07 09:55:05;;;;;;;2.80;2.50;;;28.60;93.20;;;;;;5094531;28;20992;-92
2022/06/07 09:57:42;;;;;;;2.87;2.67;;;28.60;93.30;;;;;;5081933;28;21032;-91
2022/06/07 10:00:22;;;;;;;2.97;2.70;;;28.60;92.90;;;;;;5075098;28;20475;-92
2022/06/07 10:03:00;;;;;;;3.43;2.97;;;28.60;93.00;;;;;;5081107;28;20454;-92
2022/06/07 10:05:54;;;;;;;4.90;2.60;;;28.70;93.30;;;;;;5077587;28;20443;-92
2022/06/07 10:08:26;;;;;;;3.47;2.70;;;28.80;93.40;;;;;;5076919;28;20457;-92
2022/06/07 10:11:10;;;;;;;2.90;2.03;;;28.80;93.30;;;;;;5077838;28;20451;-92
2022/06/07 10:13:50;;;;;;;3.23;2.47;;;28.90;93.30;;;;;;5098462;28;20453;-91
2022/06/07 10:16:31;;;;;;;2.60;2.40;;;28.90;93.10;;;;;;5071705;28;20454;-93
2022/06/07 10:19:24;;;;;;;3.00;2.70;;;28.90;93.10;;;;;;5098741;28;20466;-90
2022/06/07 10:21:53;;;;;;;5.33;2.70;;;28.90;93.70;;;;;;5058098;28;20471;-92
2022/06/07 10:24:48;;;;;;;2.67;2.40;;;28.90;93.80;;;;;;5078026;28;20451;-92
2022/06/07 10:27:31;;;;;;;3.27;2.97;;;28.90;93.20;;;;;;5076234;28;20466;-91
2022/06/07 10:30:06;;;;;;;3.97;3.40;;;29.00;93.50;;;;;;5081437;28;20445;-91
2022/06/07 10:32:58;;;;;;;3.47;2.87;;;29.10;93.40;;;;;;5094571;28;20540;-92
2022/06/07 10:35:49;;;;;;;3.50;2.67;;;29.10;93.10;;;;;;5093247;28;20465;-92
2022/06/07 10:38:32;;;;;;;3.33;3.03;;;29.20;92.80;;;;;;5094943;28;20543;-90
2022/06/07 10:41:10;;;;;;;3.37;3.07;;;29.20;92.60;;;;;;5071051;28;20498;-90
2022/06/07 10:43:56;;;;;;;2.73;2.53;;;29.20;92.40;;;;;;5070633;28;20527;-90
2022/06/07 10:46:22;;;;;;;3.10;2.80;;;29.10;92.00;;;;;;5070376;28;20521;-91
2022/06/07 10:49:18;;;;;;;2.77;2.57;;;29.20;92.40;;;;;;5070006;28;20662;-90
2022/06/07 10:52:24;;;;;;;2.87;2.43;;;29.20;92.10;;;;;;5056013;28;20206;-90
2022/06/07 10:54:52;;;;;;;2.43;2.23;;;29.20;91.80;;;;;;5061861;28;20868;-89
2022/06/07 10:57:27;;;;;;;2.60;2.40;;;29.20;92.10;;;;;;5067895;28;20462;-92
2022/06/07 10:59:53;;;;;;;3.10;2.40;;;29.20;91.60;;;;;;5070976;28;20556;-89
2022/06/07 11:02:51;;;;;;;2.97;2.77;;;29.20;91.50;;;;;;5062954;28;20550;-90
2022/06/07 11:11:13;;;;;;;3.50;3.20;;;29.20;91.70;;;;;;5085524;28;20450;-90
2022/06/07 11:13:58;;;;;;;2.57;2.17;;;29.20;91.50;;;;;;5070185;28;21199;-90
2022/06/07 11:16:36;;;;;;;3.07;2.60;;;29.20;91.70;;;;;;5066209;28;20476;-90
2022/06/07 11:19:04;;;;;;;3.13;2.83;;;29.30;91.90;;;;;;5063081;28;20432;-92
2022/06/07 11:21:36;;;;;;;3.67;2.80;;;29.30;91.70;;;;;;5085565;28;20534;-91
2022/06/07 11:24:14;;;;;;;2.93;2.53;;;29.30;91.80;;;;;;5059775;28;20443;-92
2022/06/07 11:26:55;;;;;;;3.27;2.83;;;29.30;91.80;;;;;;5074685;28;20458;-93
2022/06/07 11:29:30;;;;;;;2.90;2.70;;;29.20;91.80;;;;;;5085936;28;20473;-92
2022/06/07 11:31:57;;;;;;;3.30;2.77;;;29.20;91.40;;;;;;5072557;28;20462;-92
2022/06/07 11:34:37;;;;;;;3.33;3.03;;;29.20;91.50;;;;;;5091013;28;20436;-92
2022/06/07 11:37:25;;;;;;;3.73;2.80;;;29.20;91.60;;;;;;5084190;28;20457;-93
2022/06/07 11:39:52;;;;;;;2.90;2.70;;;29.10;91.80;;;;;;5056125;28;20879;-93
2022/06/07 11:42:21;;;;;;;3.80;2.60;;;29.10;92.10;;;;;;5089664;28;20606;-93
2022/06/07 11:45:03;;;;;;;3.10;2.73;;;29.10;92.40;;;;;;5097979;28;20529;-92
2022/06/07 11:47:50;;;;;;;2.97;2.77;;;29.10;91.70;;;;;;5092021;28;20456;-92
2022/06/07 11:50:42;;;;;;;2.83;2.63;;;29.10;91.20;;;;;;5082422;28;20442;-91
2022/06/07 11:53:29;;;;;;;3.17;2.87;;;29.10;91.30;;;;;;5075235;28;20460;-91
2022/06/07 11:56:25;;;;;;;2.60;2.40;;;29.10;91.70;;;;;;5100141;28;20439;-93
2022/06/07 11:58:56;;;;;;;3.17;2.50;;;29.10;91.30;;;;;;5076238;28;20435;-94
2022/06/07 12:01:56;;;;;;;2.80;2.60;;;29.00;91.50;;;;;;5099687;28;20556;-95
2022/06/07 12:04:40;;;;;;;2.43;2.23;;;29.10;91.20;;;;;;5062902;28;20451;-93
2022/06/07 12:07:24;;;;;;;2.63;2.43;;;29.20;91.80;;;;;;5082935;28;20604;-91
2022/06/07 12:09:53;;;;;;;3.60;2.90;;;29.20;91.10;;;;;;5081746;28;20643;-91
2022/06/07 12:12:22;;;;;;;3.63;2.83;;;29.30;91.20;;;;;;5070979;28;20542;-92
2022/06/07 12:14:52;;;;;;;2.37;2.17;;;29.30;90.60;;;;;;5086028;28;20484;-93
2022/06/07 12:17:31;;;;;;;3.00;2.80;;;29.30;91.00;;;;;;5067294;28;20466;-94
2022/06/07 12:19:58;;;;;;;3.13;2.90;;;29.30;91.20;;;;;;5068540;28;21027;-94
2022/06/07 12:22:28;;;;;;;3.30;3.03;;;29.30;91.40;;;;;;5074220;28;20551;-92
2022/06/07 12:24:58;;;;;;;3.30;3.00;;;29.40;91.40;;;;;;5064075;28;20479;-94
2022/06/07 12:27:35;;;;;;;3.13;2.83;;;29.50;91.20;;;;;;5083849;28;20938;-93
2022/06/07 12:30:24;;;;;;;3.30;3.00;;;29.40;91.30;;;;;;5085004;28;20433;-92
2022/06/07 12:32:50;;;;;;;3.30;3.00;;;29.40;91.40;;;;;;5056403;28;20443;-93
2022/06/07 12:35:19;;;;;;;3.30;3.00;;;29.50;91.60;;;;;;5066920;28;20455;-93
2022/06/07 12:37:56;;;;;;;3.10;2.90;;;29.50;91.60;;;;;;5072876;28;20443;-93
2022/06/07 12:40:48;;;;;;;4.27;3.20;;;29.60;91.00;;;;;;5074058;28;20483;-93
2022/06/07 12:43:26;;;;;;;3.13;2.83;;;29.60;91.00;;;;;;5073947;28;20536;-90
2022/06/07 12:46:06;;;;;;;5.80;2.80;;;29.60;91.10;;;;;;5071601;28;20444;-93
2022/06/07 12:48:40;;;;;;;3.00;2.77;;;29.60;91.00;;;;;;5074470;28;21026;-91
2022/06/07 12:51:24;;;;;;;2.97;2.67;;;29.60;90.60;;;;;;5067059;28;20442;-91
2022/06/07 12:53:58;;;;;;;2.97;2.73;;;29.60;90.50;;;;;;5084530;28;20424;-92
2022/06/07 12:56:28;;;;;;;3.00;2.80;;;29.70;90.20;;;;;;5082836;28;20448;-91
2022/06/07 12:58:57;;;;;;;2.87;2.67;;;29.70;90.10;;;;;;5068601;28;20787;-91
2022/06/07 13:01:37;;;;;;;2.70;2.50;;;29.80;90.00;;;;;;5068638;28;20497;-91
2022/06/07 13:04:32;;;;;;;3.97;2.60;;;29.70;90.50;;;;;;5068422;28;20429;-92
2022/06/07 13:07:36;;;;;;;5.40;3.10;;;29.80;90.20;;;;;;5054918;28;20481;-93
2022/06/07 13:10:05;;;;;;;3.27;2.30;;;29.80;90.00;;;;;;5048571;28;20538;-92
2022/06/07 13:12:34;;;;;;;2.80;2.57;;;29.80;85.10;;;;;;5095524;28;20956;-92
2022/06/07 13:15:03;;;;;;;3.47;2.47;;;29.80;85.10;;;;;;5070223;28;20501;-91
2022/06/07 13:17:35;;;;;;;2.70;2.50;;;29.80;85.00;;;;;;5074604;28;20523;-92
2022/06/07 13:20:04;;;;;;;2.90;2.70;;;29.80;86.90;;;;;;5077812;28;20987;-93
2022/06/07 13:22:39;;;;;;;2.73;2.53;;;29.80;86.30;;;;;;5070329;28;20459;-92
2022/06/07 13:25:19;;;;;;;3.40;2.73;;;29.80;86.40;;;;;;5071748;28;20469;-92
2022/06/07 13:27:52;;;;;;;2.80;2.60;;;29.80;86.90;;;;;;5066855;28;20451;-92
2022/06/07 13:30:21;;;;;;;3.37;2.97;;;29.80;87.20;;;;;;5057476;28;20709;-91
2022/06/07 13:33:04;;;;;;;3.93;2.50;;;29.80;87.30;;;;;;5049425;28;20920;-93
2022/06/07 13:35:44;;;;;;;2.80;2.60;;;29.80;85.80;;;;;;5070094;28;20510;-93
2022/06/07 13:38:39;;;;;;;3.60;3.30;;;29.80;85.50;;;;;;5055972;28;20453;-94
2022/06/07 13:41:05;;;;;;;3.50;2.90;;;29.80;86.80;;;;;;5074223;28;20820;-92
2022/06/07 13:43:32;;;;;;;4.27;3.30;;;29.80;86.50;;;;;;5075914;28;20444;-89
2022/06/07 13:46:03;;;;;;;4.70;3.20;;;29.70;85.80;;;;;;5073057;28;21009;-92